createdAt,value
2022-08-21T00:00:44.188Z,17.54
2022-08-21T00:01:43.120Z,17.52
2022-08-21T00:02:43.115Z,17.64
2022-08-21T00:03:42.101Z,17.54
2022-08-21T00:04:56.914Z,17.59
2022-08-21T00:05:43.088Z,17.56
2022-08-21T00:06:42.098Z,17.51
2022-08-21T00:07:42.082Z,17.52
2022-08-21T00:08:42.074Z,17.60
2022-08-21T00:09:42.059Z,17.59
2022-08-21T00:10:42.081Z,17.59
2022-08-21T00:11:42.048Z,17.51
2022-08-21T00:12:42.043Z,17.56
2022-08-21T00:13:42.033Z,17.49
2022-08-21T00:14:42.024Z,17.45
2022-08-21T00:15:42.038Z,17.42
2022-08-21T00:16:42.005Z,17.38
2022-08-21T00:17:42.003Z,17.34
2022-08-21T00:18:41.993Z,17.34
2022-08-21T00:19:41.980Z,17.34
2022-08-21T00:20:42.004Z,17.42
2022-08-21T00:21:44.454Z,17.42
2022-08-21T00:22:41.962Z,17.30
2022-08-21T00:23:41.954Z,17.39
2022-08-21T00:24:41.940Z,17.45
2022-08-21T00:25:41.963Z,17.30
2022-08-21T00:26:41.931Z,17.42
2022-08-21T00:27:41.926Z,17.33
2022-08-21T00:28:41.910Z,17.38
2022-08-21T00:29:41.903Z,17.42
2022-08-21T00:30:41.922Z,17.41
2022-08-21T00:31:41.886Z,17.41
2022-08-21T00:32:41.878Z,17.34
2022-08-21T00:33:41.868Z,17.31
2022-08-21T00:34:41.870Z,17.30
2022-08-21T00:35:41.888Z,17.27
2022-08-21T00:36:41.842Z,17.36
2022-08-21T00:37:41.840Z,17.41
2022-08-21T00:38:41.831Z,17.31
2022-08-21T00:39:41.915Z,17.39
2022-08-21T00:40:41.810Z,17.36
2022-08-21T00:41:41.809Z,17.33
2022-08-21T00:42:41.802Z,17.33
2022-08-21T00:43:41.797Z,17.30
2022-08-21T00:44:41.810Z,17.30
2022-08-21T00:45:41.777Z,17.30
2022-08-21T00:46:41.773Z,17.39
2022-08-21T00:47:41.763Z,17.33
2022-08-21T00:48:41.759Z,17.41
2022-08-21T00:49:41.766Z,17.34
2022-08-21T00:50:41.741Z,17.33
2022-08-21T00:51:41.734Z,17.42
2022-08-21T00:52:41.733Z,17.41
2022-08-21T00:53:41.717Z,17.41
2022-08-21T00:54:43.182Z,17.33
2022-08-21T00:55:41.699Z,17.33
2022-08-21T00:56:41.695Z,17.38
2022-08-21T00:57:41.682Z,17.42
2022-08-21T00:58:41.678Z,17.23
2022-08-21T00:59:41.689Z,17.31
2022-08-21T01:00:41.696Z,17.33
2022-08-21T01:01:41.651Z,17.30
2022-08-21T01:02:41.646Z,17.09
2022-08-21T01:03:44.118Z,17.06
2022-08-21T01:04:41.665Z,17.09
2022-08-21T01:05:41.622Z,17.02
2022-08-21T01:06:41.618Z,16.97
2022-08-21T01:07:41.607Z,17.01
2022-08-21T01:08:46.688Z,17.01
2022-08-21T01:09:42.608Z,16.89
2022-08-21T01:10:41.584Z,16.86
2022-08-21T01:11:41.573Z,16.83
2022-08-21T01:12:41.565Z,16.72
2022-08-21T01:13:41.562Z,16.89
2022-08-21T01:14:41.575Z,16.71
2022-08-21T01:15:41.548Z,16.66
2022-08-21T01:16:41.540Z,16.75
2022-08-21T01:17:41.524Z,16.65
2022-08-21T01:18:41.513Z,16.72
2022-08-21T01:19:41.539Z,16.61
2022-08-21T01:20:41.509Z,16.64
2022-08-21T01:21:41.494Z,16.60
2022-08-21T01:22:41.485Z,16.65
2022-08-21T01:23:41.480Z,16.56
2022-08-21T01:24:41.504Z,16.58
2022-08-21T01:25:41.458Z,16.58
2022-08-21T01:26:41.466Z,16.54
2022-08-21T01:27:41.446Z,16.49
2022-08-21T01:28:41.448Z,16.51
2022-08-21T01:29:41.428Z,16.43
2022-08-21T01:30:41.447Z,16.46
2022-08-21T01:31:41.416Z,16.38
2022-08-21T01:32:41.404Z,16.32
2022-08-21T01:33:41.398Z,16.29
2022-08-21T01:34:41.389Z,16.26
2022-08-21T01:35:41.408Z,16.20
2022-08-21T01:36:41.378Z,16.17
2022-08-21T01:37:41.362Z,16.16
2022-08-21T01:38:41.360Z,16.21
2022-08-21T01:39:41.386Z,16.12
2022-08-21T01:40:41.366Z,16.09
2022-08-21T01:41:41.330Z,16.08
2022-08-21T01:42:41.321Z,16.05
2022-08-21T01:43:41.319Z,15.98
2022-08-21T01:44:41.308Z,15.92
2022-08-21T01:45:41.328Z,15.97
2022-08-21T01:46:41.295Z,15.94
2022-08-21T01:47:41.288Z,15.91
2022-08-21T01:48:41.273Z,15.95
2022-08-21T01:49:41.265Z,15.92
2022-08-21T01:50:41.284Z,15.86
2022-08-21T01:51:41.253Z,15.84
2022-08-21T01:52:41.237Z,15.76
2022-08-21T01:53:41.242Z,15.80
2022-08-21T01:54:41.227Z,15.79
2022-08-21T01:55:41.242Z,15.73
2022-08-21T01:56:41.216Z,15.67
2022-08-21T01:57:41.202Z,15.67
2022-08-21T01:58:41.188Z,15.75
2022-08-21T01:59:42.187Z,15.68
2022-08-21T02:00:41.381Z,15.70
2022-08-21T02:01:41.177Z,15.59
2022-08-21T02:02:41.163Z,15.57
2022-08-21T02:03:41.155Z,15.59
2022-08-21T02:04:41.146Z,15.59
2022-08-21T02:05:41.161Z,15.58
2022-08-21T02:06:41.129Z,15.58
2022-08-21T02:07:41.119Z,15.54
2022-08-21T02:08:41.128Z,15.59
2022-08-21T02:09:41.112Z,15.58
2022-08-21T02:10:41.124Z,15.49
2022-08-21T02:11:42.093Z,15.49
2022-08-21T02:12:41.088Z,15.58
2022-08-21T02:13:41.072Z,15.46
2022-08-21T02:14:41.074Z,15.39
2022-08-21T02:15:41.089Z,15.36
2022-08-21T02:16:41.056Z,15.40
2022-08-21T02:17:41.051Z,15.33
2022-08-21T02:18:41.038Z,15.37
2022-08-21T02:19:41.086Z,15.31
2022-08-21T02:20:41.045Z,15.31
2022-08-21T02:21:41.013Z,15.35
2022-08-21T02:22:41.000Z,15.33
2022-08-21T02:23:40.994Z,15.37
2022-08-21T02:24:50.563Z,15.22
2022-08-21T02:25:42.013Z,15.22
2022-08-21T02:26:40.976Z,15.25
2022-08-21T02:27:40.967Z,15.22
2022-08-21T02:28:40.959Z,15.28
2022-08-21T02:29:40.948Z,15.11
2022-08-21T02:30:40.975Z,15.11
2022-08-21T02:31:40.932Z,15.18
2022-08-21T02:32:40.925Z,15.18
2022-08-21T02:33:40.917Z,15.09
2022-08-21T02:34:40.912Z,15.14
2022-08-21T02:35:40.925Z,15.10
2022-08-21T02:36:40.892Z,15.06
2022-08-21T02:37:40.881Z,15.06
2022-08-21T02:38:40.873Z,15.02
2022-08-21T02:39:40.901Z,14.97
2022-08-21T02:40:43.903Z,15.02
2022-08-21T02:41:42.849Z,15.02
2022-08-21T02:42:40.843Z,14.91
2022-08-21T02:43:40.838Z,15.04
2022-08-21T02:44:40.829Z,14.99
2022-08-21T02:45:40.868Z,15.04
2022-08-21T02:46:40.814Z,15.00
2022-08-21T02:47:40.803Z,15.02
2022-08-21T02:48:40.799Z,15.07
2022-08-21T02:49:40.793Z,15.04
2022-08-21T02:50:40.832Z,15.04
2022-08-21T02:51:40.777Z,15.04
2022-08-21T02:52:40.764Z,15.06
2022-08-21T02:53:40.764Z,15.17
2022-08-21T02:54:40.750Z,15.10
2022-08-21T02:55:40.774Z,15.17
2022-08-21T02:56:40.737Z,15.19
2022-08-21T02:57:40.729Z,15.18
2022-08-21T02:58:40.716Z,15.18
2022-08-21T02:59:41.746Z,15.21
2022-08-21T03:00:40.706Z,15.24
2022-08-21T03:01:40.778Z,15.24
2022-08-21T03:02:40.694Z,15.18
2022-08-21T03:03:40.686Z,15.24
2022-08-21T03:04:46.023Z,15.22
2022-08-21T03:05:42.667Z,15.28
2022-08-21T03:06:40.694Z,15.27
2022-08-21T03:07:40.659Z,15.22
2022-08-21T03:08:40.646Z,15.22
2022-08-21T03:09:45.558Z,15.27
2022-08-21T03:10:41.635Z,15.21
2022-08-21T03:11:40.646Z,15.24
2022-08-21T03:12:40.610Z,15.22
2022-08-21T03:13:40.604Z,15.21
2022-08-21T03:14:40.606Z,15.18
2022-08-21T03:15:40.593Z,15.18
2022-08-21T03:16:40.607Z,15.14
2022-08-21T03:17:40.572Z,15.07
2022-08-21T03:18:40.567Z,15.06
2022-08-21T03:19:40.559Z,15.02
2022-08-21T03:20:40.551Z,15.02
2022-08-21T03:21:40.574Z,15.03
2022-08-21T03:22:40.541Z,15.06
2022-08-21T03:23:40.535Z,15.09
2022-08-21T03:24:40.516Z,15.04
2022-08-21T03:25:41.128Z,15.06
2022-08-21T03:26:41.487Z,14.96
2022-08-21T03:27:40.493Z,14.99
2022-08-21T03:28:40.483Z,14.94
2022-08-21T03:29:40.482Z,14.96
2022-08-21T03:30:40.466Z,14.94
2022-08-21T03:31:40.495Z,14.86
2022-08-21T03:32:40.454Z,14.88
2022-08-21T03:33:40.451Z,14.69
2022-08-21T03:34:40.431Z,14.73
2022-08-21T03:35:40.436Z,14.82
2022-08-21T03:36:40.452Z,14.79
2022-08-21T03:37:40.412Z,14.69
2022-08-21T03:38:40.412Z,14.73
2022-08-21T03:39:40.434Z,14.68
2022-08-21T03:40:40.390Z,14.72
2022-08-21T03:41:40.412Z,14.62
2022-08-21T03:42:40.373Z,14.58
2022-08-21T03:43:40.369Z,14.58
2022-08-21T03:44:40.368Z,14.55
2022-08-21T03:45:40.354Z,14.54
2022-08-21T03:46:40.378Z,14.48
2022-08-21T03:47:40.342Z,14.45
2022-08-21T03:48:40.326Z,14.47
2022-08-21T03:49:40.320Z,14.50
2022-08-21T03:50:41.243Z,14.44
2022-08-21T03:51:40.329Z,14.40
2022-08-21T03:52:40.297Z,14.40
2022-08-21T03:53:40.292Z,14.29
2022-08-21T03:54:40.290Z,14.29
2022-08-21T03:55:40.272Z,14.32
2022-08-21T03:56:40.293Z,14.29
2022-08-21T03:57:40.261Z,14.33
2022-08-21T03:58:40.255Z,14.30
2022-08-21T03:59:40.243Z,14.18
2022-08-21T04:00:40.234Z,14.28
2022-08-21T04:01:40.305Z,14.33
2022-08-21T04:02:40.226Z,14.33
2022-08-21T04:03:40.210Z,14.30
2022-08-21T04:04:40.199Z,14.41
2022-08-21T04:05:40.210Z,14.37
2022-08-21T04:06:40.210Z,14.43
2022-08-21T04:07:40.181Z,14.47
2022-08-21T04:08:40.175Z,14.51
2022-08-21T04:09:40.183Z,14.58
2022-08-21T04:10:40.157Z,14.51
2022-08-21T04:11:40.173Z,14.51
2022-08-21T04:12:40.135Z,14.58
2022-08-21T04:13:44.648Z,14.60
2022-08-21T04:14:40.117Z,14.69
2022-08-21T04:15:40.113Z,14.70
2022-08-21T04:16:40.135Z,14.81
2022-08-21T04:17:40.094Z,14.77
2022-08-21T04:18:40.086Z,14.84
2022-08-21T04:19:40.084Z,14.82
2022-08-21T04:20:40.068Z,14.86
2022-08-21T04:21:40.090Z,14.86
2022-08-21T04:22:40.054Z,14.92
2022-08-21T04:23:40.045Z,14.86
2022-08-21T04:24:40.036Z,14.82
2022-08-21T04:25:40.035Z,14.85
2022-08-21T04:26:40.051Z,14.85
2022-08-21T04:27:40.017Z,14.86
2022-08-21T04:28:40.005Z,14.86
2022-08-21T04:29:40.300Z,14.91
2022-08-21T04:30:40.988Z,14.84
2022-08-21T04:31:39.984Z,14.91
2022-08-21T04:32:39.999Z,14.85
2022-08-21T04:33:39.967Z,14.85
2022-08-21T04:34:39.959Z,14.89
2022-08-21T04:35:39.945Z,14.86
2022-08-21T04:36:39.936Z,14.85
2022-08-21T04:37:41.590Z,14.86
2022-08-21T04:38:39.924Z,14.89
2022-08-21T04:39:39.996Z,14.82
2022-08-21T04:40:39.909Z,14.96
2022-08-21T04:41:39.902Z,14.88
2022-08-21T04:42:39.923Z,15.04
2022-08-21T04:43:39.883Z,15.10
2022-08-21T04:44:39.879Z,15.03
2022-08-21T04:45:39.876Z,15.14
2022-08-21T04:46:39.865Z,15.10
2022-08-21T04:47:52.330Z,15.14
2022-08-21T04:48:40.848Z,15.03
2022-08-21T04:49:39.839Z,15.03
2022-08-21T04:50:39.848Z,15.00
2022-08-21T04:51:39.823Z,15.06
2022-08-21T04:52:39.848Z,15.04
2022-08-21T04:53:39.814Z,15.15
2022-08-21T04:54:39.799Z,15.14
2022-08-21T04:55:39.796Z,15.17
2022-08-21T04:56:39.787Z,15.18
2022-08-21T04:57:48.653Z,15.15
2022-08-21T04:58:40.769Z,15.10
2022-08-21T04:59:39.761Z,15.21
2022-08-21T05:00:39.754Z,15.24
2022-08-21T05:01:39.787Z,15.19
2022-08-21T05:02:39.767Z,15.17
2022-08-21T05:03:39.728Z,15.11
2022-08-21T05:04:39.725Z,15.18
2022-08-21T05:05:39.720Z,15.14
2022-08-21T05:06:39.707Z,15.18
2022-08-21T05:07:42.386Z,15.25
2022-08-21T05:08:39.696Z,15.21
2022-08-21T05:09:39.687Z,15.18
2022-08-21T05:10:39.681Z,15.21
2022-08-21T05:11:39.665Z,15.24
2022-08-21T05:12:39.687Z,15.24
2022-08-21T05:13:39.653Z,15.22
2022-08-21T05:14:39.643Z,15.27
2022-08-21T05:15:39.632Z,15.27
2022-08-21T05:16:39.628Z,15.39
2022-08-21T05:17:39.639Z,15.42
2022-08-21T05:18:40.618Z,15.39
2022-08-21T05:19:39.610Z,15.37
2022-08-21T05:20:39.601Z,15.43
2022-08-21T05:21:39.594Z,15.52
2022-08-21T05:22:39.614Z,15.47
2022-08-21T05:23:39.573Z,15.47
2022-08-21T05:24:39.566Z,15.52
2022-08-21T05:25:39.560Z,15.68
2022-08-21T05:26:46.269Z,15.68
2022-08-21T05:27:40.572Z,15.67
2022-08-21T05:28:39.534Z,15.73
2022-08-21T05:29:39.524Z,15.73
2022-08-21T05:30:39.518Z,15.64
2022-08-21T05:31:39.515Z,15.77
2022-08-21T05:32:39.535Z,15.83
2022-08-21T05:33:39.500Z,15.86
2022-08-21T05:34:39.483Z,15.84
2022-08-21T05:35:39.478Z,15.90
2022-08-21T05:36:39.470Z,15.92
2022-08-21T05:37:39.478Z,15.98
2022-08-21T05:38:40.460Z,16.00
2022-08-21T05:40:04.804Z,15.98
2022-08-21T05:40:40.460Z,16.00
2022-08-21T05:41:39.427Z,15.97
2022-08-21T05:42:39.458Z,15.92
2022-08-21T05:43:39.426Z,15.92
2022-08-21T05:44:39.407Z,15.84
2022-08-21T05:45:42.582Z,15.91
2022-08-21T05:46:39.393Z,15.82
2022-08-21T05:47:39.406Z,15.83
2022-08-21T05:48:39.373Z,15.88
2022-08-21T05:49:39.362Z,15.97
2022-08-21T05:50:39.357Z,16.04
2022-08-21T05:51:39.344Z,16.08
2022-08-21T05:52:39.337Z,16.10
2022-08-21T05:53:39.353Z,16.20
2022-08-21T05:54:39.339Z,16.23
2022-08-21T05:55:44.173Z,16.24
2022-08-21T05:56:41.304Z,16.36
2022-08-21T05:57:39.333Z,16.38
2022-08-21T05:58:39.291Z,16.41
2022-08-21T05:59:39.285Z,16.54
2022-08-21T06:00:39.281Z,16.42
2022-08-21T06:01:39.314Z,16.51
2022-08-21T06:02:39.258Z,16.53
2022-08-21T06:03:39.278Z,16.60
2022-08-21T06:04:39.239Z,16.54
2022-08-21T06:05:39.233Z,16.61
2022-08-21T06:06:39.218Z,16.74
2022-08-21T06:07:39.246Z,16.66
2022-08-21T06:08:39.220Z,16.72
2022-08-21T06:09:39.210Z,16.76
2022-08-21T06:10:39.196Z,16.86
2022-08-21T06:11:39.188Z,17.01
2022-08-21T06:12:39.177Z,17.05
2022-08-21T06:13:39.196Z,17.11
2022-08-21T06:14:39.164Z,17.29
2022-08-21T06:15:39.158Z,17.31
2022-08-21T06:16:39.148Z,17.27
2022-08-21T06:17:39.141Z,17.27
2022-08-21T06:18:39.157Z,17.36
2022-08-21T06:19:39.127Z,17.49
2022-08-21T06:20:39.118Z,17.56
2022-08-21T06:21:39.107Z,17.64
2022-08-21T06:22:39.099Z,17.74
2022-08-21T06:23:39.123Z,17.78
2022-08-21T06:24:39.083Z,17.86
2022-08-21T06:25:39.072Z,17.92
2022-08-21T06:26:39.066Z,17.90
2022-08-21T06:27:39.056Z,18.04
2022-08-21T06:28:39.074Z,18.07
2022-08-21T06:29:44.364Z,18.18
2022-08-21T06:30:40.032Z,18.26
2022-08-21T06:31:39.028Z,18.25
2022-08-21T06:32:39.022Z,18.41
2022-08-21T06:33:39.031Z,18.33
2022-08-21T06:34:38.997Z,18.31
2022-08-21T06:35:41.403Z,18.40
2022-08-21T06:36:38.985Z,18.28
2022-08-21T06:37:38.976Z,18.40
2022-08-21T06:38:38.994Z,18.38
2022-08-21T06:39:43.261Z,18.35
2022-08-21T06:40:44.831Z,18.41
2022-08-21T06:41:39.944Z,18.53
2022-08-21T06:42:38.936Z,18.53
2022-08-21T06:43:39.605Z,18.50
2022-08-21T06:44:39.921Z,18.53
2022-08-21T06:45:38.915Z,18.55
2022-08-21T06:46:38.901Z,18.52
2022-08-21T06:47:38.904Z,18.59
2022-08-21T06:48:38.915Z,18.47
2022-08-21T06:49:38.976Z,18.43
2022-08-21T06:50:38.880Z,18.43
2022-08-21T06:51:38.872Z,18.38
2022-08-21T06:52:38.865Z,18.33
2022-08-21T06:53:38.877Z,18.44
2022-08-21T06:54:38.853Z,18.50
2022-08-21T06:55:38.844Z,18.44
2022-08-21T06:56:38.837Z,18.52
2022-08-21T06:57:38.829Z,18.55
2022-08-21T06:58:38.843Z,18.55
2022-08-21T06:59:38.820Z,18.62
2022-08-21T07:00:38.806Z,18.53
2022-08-21T07:01:38.836Z,18.62
2022-08-21T07:02:41.521Z,18.68
2022-08-21T07:03:38.818Z,18.66
2022-08-21T07:04:38.779Z,18.75
2022-08-21T07:05:38.766Z,18.81
2022-08-21T07:06:38.755Z,18.88
2022-08-21T07:07:38.754Z,19.04
2022-08-21T07:08:38.766Z,19.18
2022-08-21T07:09:38.733Z,19.16
2022-08-21T07:10:38.725Z,19.08
2022-08-21T07:11:44.211Z,19.08
2022-08-21T07:12:39.708Z,19.02
2022-08-21T07:13:38.723Z,19.19
2022-08-21T07:14:38.693Z,19.27
2022-08-21T07:15:38.689Z,19.40
2022-08-21T07:16:38.674Z,19.44
2022-08-21T07:17:38.671Z,19.37
2022-08-21T07:18:38.687Z,19.39
2022-08-21T07:19:38.651Z,19.59
2022-08-21T07:20:38.641Z,19.63
2022-08-21T07:21:38.632Z,19.73
2022-08-21T07:22:38.626Z,19.76
2022-08-21T07:23:38.644Z,19.94
2022-08-21T07:24:38.616Z,20.06
2022-08-21T07:25:38.603Z,20.21
2022-08-21T07:26:38.596Z,20.25
2022-08-21T07:27:38.584Z,20.32
2022-08-21T07:28:38.609Z,20.36
2022-08-21T07:29:38.573Z,20.51
2022-08-21T07:30:38.571Z,20.47
2022-08-21T07:31:38.556Z,20.69
2022-08-21T07:32:38.555Z,20.69
2022-08-21T07:33:38.567Z,20.80
2022-08-21T07:34:38.537Z,20.69
2022-08-21T07:35:38.534Z,20.92
2022-08-21T07:36:38.522Z,21.07
2022-08-21T07:37:38.525Z,21.15
2022-08-21T07:38:38.527Z,21.30
2022-08-21T07:39:38.510Z,21.50
2022-08-21T07:40:38.486Z,21.46
2022-08-21T07:41:38.481Z,21.69
2022-08-21T07:42:38.493Z,21.69
2022-08-21T07:43:38.492Z,21.80
2022-08-21T07:44:39.467Z,21.76
2022-08-21T07:45:38.450Z,22.39
2022-08-21T07:46:38.437Z,22.81
2022-08-21T07:47:41.671Z,23.55
2022-08-21T07:48:38.539Z,24.65
2022-08-21T07:49:38.442Z,24.93
2022-08-21T07:50:38.409Z,25.29
2022-08-21T07:51:38.403Z,25.98
2022-08-21T07:52:38.394Z,26.78
2022-08-21T07:53:38.425Z,27.44
2022-08-21T07:54:38.383Z,27.68
2022-08-21T07:55:38.371Z,27.75
2022-08-21T07:56:38.364Z,27.92
2022-08-21T07:57:38.345Z,27.90
2022-08-21T07:58:38.363Z,28.08
2022-08-21T07:59:38.342Z,28.01
2022-08-21T08:00:38.335Z,28.11
2022-08-21T08:01:38.369Z,28.60
2022-08-21T08:02:38.313Z,29.12
2022-08-21T08:03:38.329Z,29.05
2022-08-21T08:04:38.318Z,28.63
2022-08-21T08:05:39.292Z,28.48
2022-08-21T08:06:38.288Z,28.54
2022-08-21T08:07:38.275Z,28.67
2022-08-21T08:08:38.302Z,28.57
2022-08-21T08:09:38.263Z,28.45
2022-08-21T08:10:38.257Z,29.02
2022-08-21T08:11:38.249Z,29.50
2022-08-21T08:12:38.244Z,29.44
2022-08-21T08:13:38.266Z,29.75
2022-08-21T08:14:38.228Z,29.75
2022-08-21T08:15:38.220Z,29.84
2022-08-21T08:16:38.217Z,30.27
2022-08-21T08:17:38.206Z,30.39
2022-08-21T08:18:38.226Z,30.13
2022-08-21T08:19:38.191Z,30.44
2022-08-21T08:20:38.189Z,30.44
2022-08-21T08:21:38.178Z,30.15
2022-08-21T08:22:38.174Z,29.59
2022-08-21T08:23:38.193Z,29.26
2022-08-21T08:24:38.155Z,29.10
2022-08-21T08:25:38.145Z,29.45
2022-08-21T08:26:38.142Z,29.78
2022-08-21T08:27:38.131Z,30.44
2022-08-21T08:28:38.152Z,30.96
2022-08-21T08:29:38.123Z,30.65
2022-08-21T08:30:38.118Z,30.88
2022-08-21T08:31:38.111Z,30.90
2022-08-21T08:32:38.107Z,30.84
2022-08-21T08:33:38.129Z,31.06
2022-08-21T08:34:38.096Z,31.27
2022-08-21T08:35:39.076Z,31.22
2022-08-21T08:36:38.091Z,30.94
2022-08-21T08:37:38.071Z,30.57
2022-08-21T08:38:38.093Z,30.44
2022-08-21T08:39:38.155Z,31.06
2022-08-21T08:40:38.745Z,31.14
2022-08-21T08:41:38.050Z,31.15
2022-08-21T08:42:38.040Z,31.52
2022-08-21T08:43:38.070Z,31.42
2022-08-21T08:44:38.035Z,31.46
2022-08-21T08:45:38.022Z,30.97
2022-08-21T08:46:38.014Z,30.80
2022-08-21T08:47:38.007Z,30.46
2022-08-21T08:48:38.034Z,30.18
2022-08-21T08:49:37.999Z,30.09
2022-08-21T08:50:37.994Z,30.02
2022-08-21T08:51:37.984Z,29.69
2022-08-21T08:52:37.978Z,29.65
2022-08-21T08:53:37.996Z,29.54
2022-08-21T08:54:37.962Z,29.94
2022-08-21T08:55:37.963Z,29.79
2022-08-21T08:56:37.956Z,29.60
2022-08-21T08:57:37.941Z,29.91
2022-08-21T08:58:37.964Z,29.95
2022-08-21T08:59:37.931Z,30.35
2022-08-21T09:00:37.929Z,30.55
2022-08-21T09:01:39.143Z,30.75
2022-08-21T09:02:38.914Z,31.28
2022-08-21T09:03:37.932Z,30.80
2022-08-21T09:04:37.896Z,30.30
2022-08-21T09:05:37.891Z,30.28
2022-08-21T09:06:37.885Z,30.81
2022-08-21T09:07:37.876Z,30.68
2022-08-21T09:08:37.900Z,29.61
2022-08-21T09:09:37.869Z,28.96
2022-08-21T09:10:37.863Z,29.13
2022-08-21T09:11:37.849Z,29.45
2022-08-21T09:12:37.847Z,29.66
2022-08-21T09:13:38.718Z,29.69
2022-08-21T09:14:38.859Z,29.32
2022-08-21T09:15:37.831Z,29.61
2022-08-21T09:16:37.825Z,29.27
2022-08-21T09:17:37.814Z,29.45
2022-08-21T09:18:37.807Z,29.45
2022-08-21T09:19:37.824Z,29.12
2022-08-21T09:20:37.791Z,28.56
2022-08-21T09:21:37.789Z,28.08
2022-08-21T09:22:37.783Z,27.67
2022-08-21T09:23:37.773Z,27.27
2022-08-21T09:24:37.799Z,26.56
2022-08-21T09:25:37.768Z,26.19
2022-08-21T09:26:37.755Z,26.16
2022-08-21T09:27:37.748Z,26.29
2022-08-21T09:28:37.738Z,26.43
2022-08-21T09:29:37.760Z,26.09
2022-08-21T09:30:37.730Z,25.81
2022-08-21T09:31:37.724Z,25.78
2022-08-21T09:32:38.264Z,25.62
2022-08-21T09:33:37.709Z,25.41
2022-08-21T09:34:37.728Z,25.50
2022-08-21T09:35:37.690Z,25.16
2022-08-21T09:36:37.697Z,24.96
2022-08-21T09:37:37.680Z,24.50
2022-08-21T09:38:37.677Z,24.45
2022-08-21T09:39:40.257Z,24.77
2022-08-21T09:40:37.681Z,24.89
2022-08-21T09:41:37.655Z,25.16
2022-08-21T09:42:37.644Z,25.36
2022-08-21T09:43:37.639Z,25.73
2022-08-21T09:44:37.657Z,25.75
2022-08-21T09:45:38.621Z,26.18
2022-08-21T09:46:37.613Z,26.63
2022-08-21T09:47:37.615Z,26.65
2022-08-21T09:48:37.605Z,26.74
2022-08-21T09:49:37.626Z,26.52
2022-08-21T09:50:37.592Z,26.38
2022-08-21T09:51:37.579Z,26.65
2022-08-21T09:52:37.578Z,27.02
2022-08-21T09:53:37.569Z,27.44
2022-08-21T09:54:37.590Z,27.70
2022-08-21T09:55:37.551Z,28.05
2022-08-21T09:56:37.548Z,28.20
2022-08-21T09:57:37.539Z,28.60
2022-08-21T09:58:37.564Z,28.51
2022-08-21T09:59:37.522Z,28.14
2022-08-21T10:00:37.546Z,27.71
2022-08-21T10:01:37.512Z,27.22
2022-08-21T10:02:37.507Z,26.95
2022-08-21T10:03:37.529Z,26.99
2022-08-21T10:04:37.491Z,27.12
2022-08-21T10:05:37.486Z,27.39
2022-08-21T10:06:37.477Z,27.52
2022-08-21T10:07:37.473Z,27.40
2022-08-21T10:08:37.458Z,27.47
2022-08-21T10:09:37.481Z,27.55
2022-08-21T10:10:37.444Z,27.48
2022-08-21T10:11:37.441Z,27.60
2022-08-21T10:12:37.433Z,27.55
2022-08-21T10:13:37.425Z,27.58
2022-08-21T10:14:37.440Z,27.52
2022-08-21T10:15:37.404Z,27.49
2022-08-21T10:16:37.398Z,27.42
2022-08-21T10:17:37.403Z,27.49
2022-08-21T10:18:37.384Z,27.47
2022-08-21T10:19:37.399Z,27.47
2022-08-21T10:20:37.363Z,27.42
2022-08-21T10:21:37.358Z,27.51
2022-08-21T10:22:37.352Z,27.40
2022-08-21T10:23:37.383Z,27.18
2022-08-21T10:24:37.335Z,27.21
2022-08-21T10:25:37.331Z,27.26
2022-08-21T10:26:37.327Z,27.21
2022-08-21T10:27:37.320Z,27.27
2022-08-21T10:28:37.335Z,27.12
2022-08-21T10:29:37.297Z,27.11
2022-08-21T10:30:37.295Z,27.11
2022-08-21T10:31:37.286Z,27.11
2022-08-21T10:32:37.279Z,27.02
2022-08-21T10:33:37.298Z,27.08
2022-08-21T10:34:37.260Z,27.14
2022-08-21T10:35:37.251Z,27.22
2022-08-21T10:36:37.247Z,27.22
2022-08-21T10:37:37.241Z,27.35
2022-08-21T10:38:52.574Z,27.25
2022-08-21T10:39:39.283Z,27.07
2022-08-21T10:40:37.220Z,26.88
2022-08-21T10:41:37.213Z,26.60
2022-08-21T10:42:37.204Z,26.31
2022-08-21T10:43:37.199Z,25.99
2022-08-21T10:44:37.211Z,25.63
2022-08-21T10:45:37.182Z,25.38
2022-08-21T10:46:37.180Z,25.25
2022-08-21T10:47:37.165Z,24.98
2022-08-21T10:48:37.162Z,24.86
2022-08-21T10:49:37.173Z,24.95
2022-08-21T10:50:37.145Z,24.78
2022-08-21T10:51:37.136Z,24.60
2022-08-21T10:52:37.126Z,24.61
2022-08-21T10:53:37.128Z,24.60
2022-08-21T10:54:37.138Z,24.88
2022-08-21T10:55:37.106Z,24.99
2022-08-21T10:56:37.099Z,25.33
2022-08-21T10:57:37.090Z,25.63
2022-08-21T10:58:37.085Z,25.85
2022-08-21T10:59:38.862Z,25.90
2022-08-21T11:00:38.143Z,26.15
2022-08-21T11:01:37.071Z,26.29
2022-08-21T11:02:37.049Z,26.53
2022-08-21T11:03:37.048Z,26.53
2022-08-21T11:04:49.284Z,26.43
2022-08-21T11:05:38.074Z,26.34
2022-08-21T11:06:37.023Z,26.34
2022-08-21T11:07:37.017Z,26.41
2022-08-21T11:08:37.009Z,26.52
2022-08-21T11:09:37.029Z,26.48
2022-08-21T11:10:36.997Z,26.59
2022-08-21T11:11:36.991Z,26.75
2022-08-21T11:12:36.981Z,26.88
2022-08-21T11:13:36.969Z,27.26
2022-08-21T11:14:36.984Z,27.29
2022-08-21T11:15:36.954Z,27.37
2022-08-21T11:16:36.942Z,27.58
2022-08-21T11:17:36.935Z,27.59
2022-08-21T11:18:36.927Z,27.42
2022-08-21T11:19:36.948Z,27.64
2022-08-21T11:20:36.912Z,27.73
2022-08-21T11:21:36.910Z,28.04
2022-08-21T11:22:36.898Z,28.00
2022-08-21T11:23:36.891Z,28.19
2022-08-21T11:24:36.912Z,28.32
2022-08-21T11:25:37.224Z,28.04
2022-08-21T11:26:36.857Z,28.11
2022-08-21T11:27:37.862Z,28.11
2022-08-21T11:28:36.855Z,28.22
2022-08-21T11:29:36.875Z,28.30
2022-08-21T11:30:36.843Z,28.47
2022-08-21T11:31:36.828Z,28.67
2022-08-21T11:32:37.829Z,28.69
2022-08-21T11:33:36.814Z,28.75
2022-08-21T11:34:37.846Z,28.91
2022-08-21T11:35:37.846Z,28.82
2022-08-21T11:36:36.801Z,28.62
2022-08-21T11:37:36.792Z,28.41
2022-08-21T11:38:36.787Z,28.32
2022-08-21T11:39:36.817Z,28.39
2022-08-21T11:40:36.771Z,28.38
2022-08-21T11:41:36.767Z,28.29
2022-08-21T11:42:36.755Z,28.17
2022-08-21T11:43:36.749Z,28.20
2022-08-21T11:44:36.797Z,28.32
2022-08-21T11:45:36.735Z,28.52
2022-08-21T11:46:36.729Z,28.64
2022-08-21T11:47:36.722Z,28.96
2022-08-21T11:48:36.719Z,29.01
2022-08-21T11:49:36.737Z,28.89
2022-08-21T11:50:36.698Z,28.51
2022-08-21T11:51:36.692Z,28.48
2022-08-21T11:52:36.686Z,28.19
2022-08-21T11:53:36.670Z,27.96
2022-08-21T11:54:37.696Z,28.01
2022-08-21T11:55:36.660Z,28.29
2022-08-21T11:56:36.652Z,28.33
2022-08-21T11:57:36.646Z,28.41
2022-08-21T11:58:36.639Z,28.48
2022-08-21T11:59:40.651Z,28.60
2022-08-21T12:00:37.623Z,28.52
2022-08-21T12:01:36.688Z,28.41
2022-08-21T12:02:36.610Z,28.57
2022-08-21T12:03:36.599Z,28.52
2022-08-21T12:04:36.620Z,28.75
2022-08-21T12:05:36.586Z,28.79
2022-08-21T12:06:36.581Z,28.82
2022-08-21T12:07:36.574Z,28.93
2022-08-21T12:08:36.561Z,28.75
2022-08-21T12:09:36.585Z,28.84
2022-08-21T12:10:36.550Z,28.97
2022-08-21T12:11:36.540Z,29.05
2022-08-21T12:12:36.537Z,29.17
2022-08-21T12:13:39.934Z,29.39
2022-08-21T12:14:37.548Z,29.60
2022-08-21T12:15:36.509Z,29.82
2022-08-21T12:16:36.505Z,29.76
2022-08-21T12:17:36.493Z,29.75
2022-08-21T12:18:36.487Z,29.71
2022-08-21T12:19:36.508Z,29.66
2022-08-21T12:20:36.473Z,29.65
2022-08-21T12:21:36.467Z,29.63
2022-08-21T12:22:36.454Z,29.60
2022-08-21T12:23:36.453Z,29.50
2022-08-21T12:24:36.471Z,29.34
2022-08-21T12:25:36.431Z,29.17
2022-08-21T12:26:36.434Z,29.20
2022-08-21T12:27:36.423Z,29.32
2022-08-21T12:28:36.416Z,29.29
2022-08-21T12:29:36.431Z,29.44
2022-08-21T12:30:36.396Z,29.42
2022-08-21T12:31:36.396Z,29.60
2022-08-21T12:32:36.387Z,29.59
2022-08-21T12:33:36.375Z,29.42
2022-08-21T12:34:36.391Z,29.17
2022-08-21T12:35:36.363Z,29.07
2022-08-21T12:36:38.845Z,28.93
2022-08-21T12:37:37.350Z,28.78
2022-08-21T12:38:36.376Z,28.54
2022-08-21T12:39:36.401Z,28.42
2022-08-21T12:40:36.328Z,28.25
2022-08-21T12:41:36.317Z,28.11
2022-08-21T12:42:36.310Z,28.10
2022-08-21T12:43:36.895Z,28.14
2022-08-21T12:44:36.313Z,28.15
2022-08-21T12:45:36.291Z,28.17
2022-08-21T12:46:36.279Z,28.00
2022-08-21T12:47:36.269Z,27.90
2022-08-21T12:48:36.260Z,27.90
2022-08-21T12:49:36.279Z,27.89
2022-08-21T12:50:36.263Z,27.85
2022-08-21T12:51:36.241Z,28.02
2022-08-21T12:52:39.365Z,28.02